Time;durP1;ratioP1;P1;durP2;ratioP2;P2;SDS_P1;SDS_P2;PMS_P1;PMS_P2;Temp;Humidity;BMP_temperature;BMP_pressure;BME280_temperature;BME280_humidity;BME280_pressure;Samples;Min_cycle;Max_cycle;Signal;HPM_P1;HPM_P2
2022/12/02 18:06:38;;;;;;;11.68;7.45;;;;;;;;;;3847724;37;43417;-66
2022/12/02 18:09:25;;;;;;;12.88;7.43;;;;;;;;;;4398592;32;61137;-65
2022/12/02 18:12:11;;;;;;;;;;;;;;;;;;4409503;32;70233;-66
2022/12/02 18:14:58;;;;;;;11.60;6.87;;;;;;;;;;4411150;32;69412;-66
2022/12/02 18:17:45;;;;;;;12.40;6.62;;;;;;;;;;4410836;32;66769;-66
2022/12/02 18:20:31;;;;;;;;;;;;;;;;;;4409870;32;71575;-67
2022/12/02 18:23:18;;;;;;;12.60;7.10;;;;;;;;;;4397707;32;65945;-66
2022/12/02 18:26:04;;;;;;;11.15;6.45;;;;;;;;;;4410903;32;66195;-66
2022/12/02 18:28:51;;;;;;;11.80;6.65;;;;;;;;;;4387244;32;61303;-66
2022/12/02 18:31:37;;;;;;;14.30;7.55;;;;;;;;;;4410686;32;71664;-66
2022/12/02 18:34:24;;;;;;;11.88;6.95;;;;;;;;;;4398655;32;65999;-65
2022/12/02 18:37:10;;;;;;;13.70;7.40;;;;;;;;;;4409622;32;66548;-65
2022/12/02 18:39:57;;;;;;;11.30;6.40;;;;;;;;;;4399130;32;60571;-66
2022/12/02 18:42:45;;;;;;;12.00;6.68;;;;;;;;;;4397891;32;71322;-66
2022/12/02 18:45:31;;;;;;;12.88;6.82;;;;;;;;;;4409498;32;69161;-65
2022/12/02 18:48:18;;;;;;;12.50;6.78;;;;;;;;;;4409250;32;67380;-65
2022/12/02 18:51:04;;;;;;;10.80;7.12;;;;;;;;;;4410330;32;71766;-66
2022/12/02 18:53:51;;;;;;;12.63;7.32;;;;;;;;;;4410957;32;65936;-65
2022/12/02 18:56:37;;;;;;;13.15;6.85;;;;;;;;;;4398436;32;68426;-66
2022/12/02 18:59:24;;;;;;;13.02;7.70;;;;;;;;;;4409159;32;68078;-65
2022/12/02 19:02:11;;;;;;;16.92;8.30;;;;;;;;;;4398483;32;70794;-65
2022/12/02 19:04:58;;;;;;;14.07;7.68;;;;;;;;;;4398072;32;65914;-66
2022/12/02 19:07:45;;;;;;;14.00;8.10;;;;;;;;;;4376496;32;68024;-66
2022/12/02 19:10:32;;;;;;;13.55;7.32;;;;;;;;;;4409252;32;60449;-65
2022/12/02 19:13:19;;;;;;;16.00;8.30;;;;;;;;;;4408954;32;70490;-65
2022/12/02 19:16:06;;;;;;;16.20;8.07;;;;;;;;;;4407697;32;69448;-66
2022/12/02 19:18:52;;;;;;;16.65;7.75;;;;;;;;;;4377100;32;68331;-66
2022/12/02 19:21:39;;;;;;;13.48;7.70;;;;;;;;;;4400469;32;59234;-66
2022/12/02 19:24:26;;;;;;;12.43;7.35;;;;;;;;;;4399868;32;69690;-65
2022/12/02 19:27:12;;;;;;;;;;;;;;;;;;4388421;32;68518;-66
2022/12/02 19:29:59;;;;;;;14.60;7.68;;;;;;;;;;4398333;32;68297;-65
2022/12/02 19:32:45;;;;;;;15.25;7.37;;;;;;;;;;4398402;32;71925;-66
2022/12/02 19:35:32;;;;;;;14.07;7.55;;;;;;;;;;4387408;32;66876;-67
2022/12/02 19:38:19;;;;;;;17.10;8.57;;;;;;;;;;4398633;32;67507;-66
2022/12/02 19:41:05;;;;;;;14.25;7.78;;;;;;;;;;4399971;32;60234;-66
2022/12/02 19:43:52;;;;;;;13.10;7.32;;;;;;;;;;4387019;32;71532;-66
2022/12/02 19:46:39;;;;;;;13.00;7.30;;;;;;;;;;4387779;32;65044;-66
2022/12/02 19:49:25;;;;;;;17.25;8.30;;;;;;;;;;4377290;32;67347;-65
2022/12/02 19:52:12;;;;;;;15.70;8.40;;;;;;;;;;4399202;32;60469;-66
2022/12/02 19:54:59;;;;;;;15.88;7.57;;;;;;;;;;4398791;32;70448;-66
2022/12/02 19:57:45;;;;;;;14.90;8.30;;;;;;;;;;4398339;32;68547;-65
2022/12/02 20:00:34;;;;;;;12.35;7.55;;;;;;;;;;4387203;32;68247;-67
2022/12/02 20:03:21;;;;;;;11.32;7.05;;;;;;;;;;4398151;32;71951;-66
2022/12/02 20:06:08;;;;;;;13.15;7.28;;;;;;;;;;4399101;32;65249;-67
2022/12/02 20:08:57;;;;;;;12.80;7.50;;;;;;;;;;4398506;32;67564;-68
2022/12/02 20:11:44;;;;;;;13.02;7.30;;;;;;;;;;4399683;32;66336;-65
2022/12/02 20:14:31;;;;;;;;;;;;;;;;;;4387711;32;70858;-67
2022/12/02 20:17:17;;;;;;;15.85;7.72;;;;;;;;;;4375937;32;66948;-66
2022/12/02 20:20:05;;;;;;;11.98;6.80;;;;;;;;;;4398053;32;66777;-66
2022/12/02 20:22:53;;;;;;;10.85;6.87;;;;;;;;;;4376893;32;60227;-67
2022/12/02 20:25:40;;;;;;;13.70;7.18;;;;;;;;;;4397899;32;70503;-66
2022/12/02 20:28:26;;;;;;;12.60;7.32;;;;;;;;;;4386457;32;68542;-67
2022/12/02 20:31:13;;;;;;;14.50;7.82;;;;;;;;;;4387396;32;67464;-66
2022/12/02 20:33:59;;;;;;;11.85;7.53;;;;;;;;;;4387776;32;59209;-66
2022/12/02 20:36:46;;;;;;;;;;;;;;;;;;4378007;32;69566;-66
2022/12/02 20:39:33;;;;;;;21.23;11.57;;;;;;;;;;4398295;32;69905;-65
2022/12/02 20:42:19;;;;;;;19.65;11.05;;;;;;;;;;4372069;32;67542;-66
2022/12/02 20:45:08;;;;;;;19.12;10.10;;;;;;;;;;4371860;32;71514;-65
2022/12/02 20:47:55;;;;;;;19.35;10.27;;;;;;;;;;4371376;32;65916;-66
2022/12/02 20:50:43;;;;;;;20.52;10.45;;;;;;;;;;4382437;32;67292;-66
2022/12/02 20:53:30;;;;;;;20.35;9.68;;;;;;;;;;4372079;32;59378;-66
2022/12/02 20:56:17;;;;;;;16.55;8.80;;;;;;;;;;4383610;32;70575;-65
2022/12/02 20:59:04;;;;;;;17.58;8.95;;;;;;;;;;4382404;32;66200;-66
2022/12/02 21:01:50;;;;;;;17.33;8.95;;;;;;;;;;4382370;32;66815;-66
2022/12/02 21:04:37;;;;;;;17.48;8.88;;;;;;;;;;4382140;32;60240;-65
2022/12/02 21:07:24;;;;;;;12.75;7.12;;;;;;;;;;4370745;32;70287;-66
2022/12/02 21:10:11;;;;;;;12.65;7.22;;;;;;;;;;4371653;32;69156;-65
2022/12/02 21:12:58;;;;;;;15.98;9.15;;;;;;;;;;4382059;32;67576;-66
2022/12/02 21:15:51;;;;;;;13.23;7.62;;;;;;;;;;4383280;32;70765;-66
2022/12/02 21:18:38;;;;;;;13.27;7.22;;;;;;;;;;4371498;32;64950;-65
2022/12/02 21:21:24;;;;;;;;;;;;;;;;;;4371164;32;68081;-66
2022/12/02 21:24:11;;;;;;;12.37;7.18;;;;;;;;;;4383488;32;67444;-66
2022/12/02 21:26:58;;;;;;;13.45;7.50;;;;;;;;;;4381803;32;71569;-65
2022/12/02 21:29:44;;;;;;;12.55;7.35;;;;;;;;;;4383264;32;65128;-66
2022/12/02 21:32:31;;;;;;;12.90;7.87;;;;;;;;;;4371364;32;66642;-66
2022/12/02 21:35:18;;;;;;;14.63;7.57;;;;;;;;;;4382200;32;59025;-65
2022/12/02 21:38:05;;;;;;;13.52;7.68;;;;;;;;;;4382008;32;70770;-66
2022/12/02 21:40:51;;;;;;;12.98;7.25;;;;;;;;;;4381670;32;69081;-65
2022/12/02 21:43:38;;;;;;;12.50;8.02;;;;;;;;;;4371195;32;67671;-66
2022/12/02 21:46:25;;;;;;;;;;;;;;;;;;4371838;32;71706;-65
2022/12/02 21:49:11;;;;;;;13.10;7.28;;;;;;;;;;4381960;32;69065;-66
2022/12/02 21:51:58;;;;;;;14.95;7.35;;;;;;;;;;4371214;32;68428;-66
2022/12/02 21:54:45;;;;;;;18.08;7.95;;;;;;;;;;4383139;32;66807;-65
2022/12/02 21:57:31;;;;;;;13.70;8.02;;;;;;;;;;4381674;32;71780;-65
2022/12/02 22:00:18;;;;;;;14.90;7.65;;;;;;;;;;4370096;32;68304;-66
2022/12/02 22:03:05;;;;;;;13.85;7.55;;;;;;;;;;4381838;32;67607;-66
2022/12/02 22:05:51;;;;;;;14.50;7.68;;;;;;;;;;4381368;32;59323;-67
2022/12/02 22:08:38;;;;;;;11.85;6.90;;;;;;;;;;4382691;32;69493;-66
2022/12/02 22:11:24;;;;;;;15.38;7.82;;;;;;;;;;4370728;32;69534;-65
2022/12/02 22:14:11;;;;;;;;;;;;;;;;;;4370632;32;67935;-66
2022/12/02 22:16:57;;;;;;;13.52;6.87;;;;;;;;;;4370763;32;60171;-66
2022/12/02 22:19:44;;;;;;;11.48;7.32;;;;;;;;;;4360321;32;70810;-67
2022/12/02 22:22:31;;;;;;;14.18;7.47;;;;;;;;;;4381453;32;68468;-66
2022/12/02 22:25:18;;;;;;;16.77;7.75;;;;;;;;;;4370973;32;66538;-66
2022/12/02 22:28:04;;;;;;;12.85;6.72;;;;;;;;;;4380806;32;71441;-67
2022/12/02 22:30:51;;;;;;;11.18;6.57;;;;;;;;;;4381564;32;64832;-66
2022/12/02 22:33:37;;;;;;;11.52;6.37;;;;;;;;;;4381426;32;67740;-66
2022/12/02 22:36:24;;;;;;;11.82;6.62;;;;;;;;;;4382794;32;60144;-65
2022/12/02 22:39:10;;;;;;;12.80;6.87;;;;;;;;;;4359612;32;72230;-66
2022/12/02 22:41:57;;;;;;;11.68;6.40;;;;;;;;;;4381379;32;66013;-67
2022/12/02 22:44:44;;;;;;;12.30;6.87;;;;;;;;;;4369583;32;68781;-66
2022/12/02 22:47:30;;;;;;;13.05;6.90;;;;;;;;;;4381452;32;59048;-66
2022/12/02 22:50:17;;;;;;;11.35;6.97;;;;;;;;;;4369489;32;71147;-65
2022/12/02 22:53:04;;;;;;;11.38;6.50;;;;;;;;;;4384602;32;69231;-66
2022/12/02 22:55:50;;;;;;;13.35;6.65;;;;;;;;;;4383758;32;67688;-66
2022/12/02 22:58:37;;;;;;;13.48;7.05;;;;;;;;;;4384565;32;72069;-66
2022/12/02 23:01:24;;;;;;;;;;;;;;;;;;4390554;32;69862;-67
2022/12/02 23:04:10;;;;;;;15.05;7.50;;;;;;;;;;4385802;32;69499;-66
2022/12/02 23:06:57;;;;;;;13.05;7.28;;;;;;;;;;4376777;32;67283;-66
2022/12/02 23:09:43;;;;;;;14.07;8.30;;;;;;;;;;4373825;32;71243;-66
2022/12/02 23:12:30;;;;;;;13.15;7.72;;;;;;;;;;4387415;32;66321;-65
2022/12/02 23:15:18;;;;;;;12.50;7.53;;;;;;;;;;4383904;32;68005;-66
2022/12/02 23:18:05;;;;;;;;;;;;;;;;;;4373707;32;60238;-66
2022/12/02 23:20:51;;;;;;;11.63;7.80;;;;;;;;;;4373116;32;70140;-66
2022/12/02 23:23:38;;;;;;;14.05;7.50;;;;;;;;;;4372327;32;69748;-66
2022/12/02 23:26:25;;;;;;;14.93;7.53;;;;;;;;;;4383546;32;68061;-64
2022/12/02 23:29:11;;;;;;;16.80;8.52;;;;;;;;;;4373103;32;60145;-66
2022/12/02 23:31:58;;;;;;;14.30;8.20;;;;;;;;;;4384582;32;70396;-65
2022/12/02 23:34:44;;;;;;;15.32;8.43;;;;;;;;;;4361339;32;69972;-65
2022/12/02 23:37:31;;;;;;;17.08;9.57;;;;;;;;;;4384735;32;66670;-66
2022/12/02 23:40:18;;;;;;;19.12;11.07;;;;;;;;;;4371557;32;72104;-66
2022/12/02 23:43:05;;;;;;;20.67;12.32;;;;;;;;;;4372190;32;66594;-65
2022/12/02 23:45:52;;;;;;;21.87;11.82;;;;;;;;;;4384556;32;67098;-66
2022/12/02 23:48:38;;;;;;;;;;;;;;;;;;4373296;32;60269;-65
2022/12/02 23:51:25;;;;;;;24.48;13.45;;;;;;;;;;4372938;32;72130;-66
2022/12/02 23:54:11;;;;;;;25.02;13.18;;;;;;;;;;4383361;32;65895;-66
2022/12/02 23:56:58;;;;;;;23.75;12.05;;;;;;;;;;4383119;32;66902;-65
2022/12/02 23:59:44;;;;;;;25.50;13.82;;;;;;;;;;4383382;32;59266;-65
